createdAt,value
2022-07-27T00:01:31.108Z,101707.34
2022-07-27T00:03:57.698Z,101705.41
2022-07-27T00:06:24.226Z,101706.03
2022-07-27T00:08:50.901Z,101704.97
2022-07-27T00:11:17.615Z,101715.88
2022-07-27T00:13:45.185Z,101705.94
2022-07-27T00:16:11.712Z,101705.88
2022-07-27T00:18:38.266Z,101707.53
2022-07-27T00:21:04.693Z,101707.84
2022-07-27T00:23:31.212Z,101701.59
2022-07-27T00:25:57.708Z,101711.22
2022-07-27T00:28:24.179Z,101716.28
2022-07-27T00:30:50.589Z,101711.22
2022-07-27T00:33:17.598Z,101714.31
2022-07-27T00:35:44.485Z,101715.31
2022-07-27T00:38:11.963Z,101712.84
2022-07-27T00:40:38.629Z,101710.91
2022-07-27T00:43:05.265Z,101706.06
2022-07-27T00:45:31.852Z,101705.66
2022-07-27T00:47:58.472Z,101702.41
2022-07-27T00:50:24.984Z,101708.31
2022-07-27T00:52:51.941Z,101710.03
2022-07-27T00:55:18.605Z,101712.38
2022-07-27T00:57:58.498Z,101710.97
2022-07-27T01:00:26.004Z,101702.47
2022-07-27T01:02:52.605Z,101705.72
2022-07-27T01:05:19.432Z,101709.19
2022-07-27T01:07:47.899Z,101707.03
2022-07-27T01:10:14.619Z,101711.69
2022-07-27T01:12:41.093Z,101716.50
2022-07-27T01:15:07.728Z,101718.00
2022-07-27T01:17:34.165Z,101712.88
2022-07-27T01:20:00.643Z,101717.06
2022-07-27T01:22:27.218Z,101709.84
2022-07-27T01:24:53.716Z,101710.41
2022-07-27T01:27:20.233Z,101700.59
2022-07-27T01:29:46.882Z,101707.63
2022-07-27T01:32:13.416Z,101704.59
2022-07-27T01:34:39.958Z,101705.47
2022-07-27T01:37:06.634Z,101697.03
2022-07-27T01:39:33.756Z,101700.28
2022-07-27T01:42:00.687Z,101696.84
2022-07-27T01:44:27.314Z,101692.69
2022-07-27T01:46:54.074Z,101698.91
2022-07-27T01:49:20.743Z,101698.38
2022-07-27T01:51:47.223Z,101696.88
2022-07-27T01:54:14.044Z,101696.75
2022-07-27T01:56:40.859Z,101694.38
2022-07-27T01:59:07.373Z,101693.09
2022-07-27T02:01:33.920Z,101692.69
2022-07-27T02:04:00.686Z,101695.03
2022-07-27T02:06:27.137Z,101693.75
2022-07-27T02:08:53.573Z,101699.13
2022-07-27T02:11:38.624Z,101693.53
2022-07-27T02:14:05.083Z,101698.59
2022-07-27T02:16:31.549Z,101692.56
2022-07-27T02:18:58.138Z,101682.34
2022-07-27T02:21:24.668Z,101685.91
2022-07-27T02:23:51.172Z,101682.22
2022-07-27T02:26:17.587Z,101686.09
2022-07-27T02:28:44.209Z,101692.66
2022-07-27T02:31:10.639Z,101685.13
2022-07-27T02:33:37.173Z,101694.84
2022-07-27T02:36:03.977Z,101689.22
2022-07-27T02:38:30.418Z,101687.94
2022-07-27T02:40:56.871Z,101687.25
2022-07-27T02:43:23.476Z,101685.41
2022-07-27T02:45:50.261Z,101686.47
2022-07-27T02:48:16.736Z,101695.72
2022-07-27T02:50:43.353Z,101695.06
2022-07-27T02:53:09.770Z,101684.50
2022-07-27T02:55:36.216Z,101690.22
2022-07-27T02:58:02.885Z,101688.28
2022-07-27T03:00:29.468Z,101693.44
2022-07-27T03:02:55.907Z,101692.91
2022-07-27T03:05:22.465Z,101689.03
2022-07-27T03:07:48.890Z,101694.06
2022-07-27T03:10:15.383Z,101695.78
2022-07-27T03:12:43.739Z,101698.03
2022-07-27T03:15:10.685Z,101691.16
2022-07-27T03:17:37.182Z,101698.56
2022-07-27T03:20:03.948Z,101694.66
2022-07-27T03:22:33.306Z,101695.88
2022-07-27T03:25:00.278Z,101693.47
2022-07-27T03:27:26.891Z,101700.78
2022-07-27T03:29:53.494Z,101697.31
2022-07-27T03:32:19.932Z,101701.78
2022-07-27T03:34:46.359Z,101700.78
2022-07-27T03:37:12.938Z,101700.84
2022-07-27T03:39:39.424Z,101706.31
2022-07-27T03:42:06.082Z,101706.97
2022-07-27T03:44:33.446Z,101706.31
2022-07-27T03:46:59.892Z,101701.41
2022-07-27T03:49:26.438Z,101711.13
2022-07-27T03:51:52.908Z,101713.47
2022-07-27T03:54:19.340Z,101702.72
2022-07-27T03:56:45.792Z,101708.97
2022-07-27T03:59:12.726Z,101710.03
2022-07-27T04:01:39.490Z,101723.81
2022-07-27T04:04:06.021Z,101713.31
2022-07-27T04:06:32.586Z,101722.34
2022-07-27T04:09:07.661Z,101711.59
2022-07-27T04:11:35.600Z,101706.53
2022-07-27T04:14:04.455Z,101718.63
2022-07-27T04:16:35.821Z,101713.38
2022-07-27T04:19:02.845Z,101720.06
2022-07-27T04:21:33.906Z,101715.66
2022-07-27T04:24:01.427Z,101719.34
2022-07-27T04:26:28.291Z,101721.84
2022-07-27T04:28:54.790Z,101713.84
2022-07-27T04:31:21.818Z,101715.47
2022-07-27T04:33:48.350Z,101714.31
2022-07-27T04:36:14.862Z,101716.38
2022-07-27T04:38:41.444Z,101713.22
2022-07-27T04:41:07.863Z,101715.16
2022-07-27T04:43:34.275Z,101719.31
2022-07-27T04:46:03.131Z,101706.06
2022-07-27T04:48:29.687Z,101714.84
2022-07-27T04:50:56.143Z,101713.34
2022-07-27T04:53:22.601Z,101712.25
2022-07-27T04:55:49.204Z,101715.13
2022-07-27T04:58:15.886Z,101720.16
2022-07-27T05:00:43.695Z,101721.28
2022-07-27T05:03:10.479Z,101723.66
2022-07-27T05:05:37.090Z,101724.59
2022-07-27T05:08:03.691Z,101729.38
2022-07-27T05:10:30.386Z,101729.06
2022-07-27T05:12:57.375Z,101736.72
2022-07-27T05:15:24.002Z,101735.50
2022-07-27T05:17:52.094Z,101744.22
2022-07-27T05:20:18.536Z,101744.28
2022-07-27T05:22:45.173Z,101743.28
2022-07-27T05:25:11.732Z,101747.66
2022-07-27T05:27:53.800Z,101746.00
2022-07-27T05:30:22.710Z,101754.44
2022-07-27T05:32:49.339Z,101758.25
2022-07-27T05:35:15.872Z,101752.88
2022-07-27T05:37:42.287Z,101755.84
2022-07-27T05:40:10.280Z,101766.31
2022-07-27T05:42:36.746Z,101763.03
2022-07-27T05:45:03.308Z,101764.84
2022-07-27T05:47:29.851Z,101764.94
2022-07-27T05:49:57.187Z,101759.94
2022-07-27T05:52:23.593Z,101758.03
2022-07-27T05:54:50.085Z,101761.28
2022-07-27T05:57:16.538Z,101760.50
2022-07-27T05:59:42.973Z,101758.13
2022-07-27T06:02:09.408Z,101766.72
2022-07-27T06:04:36.150Z,101759.00
2022-07-27T06:07:21.227Z,101767.94
2022-07-27T06:09:47.709Z,101764.66
2022-07-27T06:12:14.126Z,101766.16
2022-07-27T06:14:40.564Z,101764.63
2022-07-27T06:17:07.764Z,101766.75
2022-07-27T06:19:36.367Z,101775.25
2022-07-27T06:22:04.882Z,101771.84
2022-07-27T06:24:31.578Z,101772.00
2022-07-27T06:26:58.041Z,101771.09
2022-07-27T06:29:24.523Z,101774.13
2022-07-27T06:31:51.024Z,101778.88
2022-07-27T06:34:19.259Z,101779.91
2022-07-27T06:36:46.323Z,101786.31
2022-07-27T06:39:13.523Z,101794.59
2022-07-27T06:41:40.633Z,101782.03
2022-07-27T06:44:07.086Z,101792.63
2022-07-27T06:46:33.560Z,101788.91
2022-07-27T06:49:00.085Z,101783.28
2022-07-27T06:51:26.599Z,101792.47
2022-07-27T06:53:54.397Z,101793.63
2022-07-27T06:56:21.285Z,101804.13
2022-07-27T06:58:48.519Z,101799.53
2022-07-27T07:01:15.335Z,101800.28
2022-07-27T07:03:42.051Z,101799.47
2022-07-27T07:06:08.543Z,101803.38
2022-07-27T07:08:35.655Z,101809.94
2022-07-27T07:11:02.523Z,101809.00
2022-07-27T07:13:29.259Z,101814.63
2022-07-27T07:15:56.590Z,101811.91
2022-07-27T07:18:23.029Z,101818.94
2022-07-27T07:20:49.530Z,101819.19
2022-07-27T07:23:16.007Z,101812.53
2022-07-27T07:25:42.548Z,101812.47
2022-07-27T07:28:09.133Z,101822.22
2022-07-27T07:30:35.955Z,101839.28
2022-07-27T07:33:02.644Z,101835.91
2022-07-27T07:35:29.181Z,101838.00
2022-07-27T07:37:55.645Z,101833.63
2022-07-27T07:40:42.791Z,101837.56
2022-07-27T07:43:09.132Z,101826.56
2022-07-27T07:45:45.162Z,101815.53
2022-07-27T07:48:16.859Z,101820.53
2022-07-27T07:50:43.338Z,101817.97
2022-07-27T07:53:09.956Z,101817.50
2022-07-27T07:55:37.855Z,101822.28
2022-07-27T07:58:04.297Z,101832.19
2022-07-27T08:00:30.852Z,101814.72
2022-07-27T08:02:58.163Z,101820.19
2022-07-27T08:05:25.623Z,101823.53
2022-07-27T08:07:52.888Z,101821.88
2022-07-27T08:10:20.760Z,101825.19
2022-07-27T08:12:50.377Z,101825.28
2022-07-27T08:15:17.550Z,101823.63
2022-07-27T08:17:44.166Z,101816.88
2022-07-27T08:20:12.045Z,101826.22
2022-07-27T08:22:38.522Z,101819.94
2022-07-27T08:25:05.917Z,101828.63
2022-07-27T08:27:40.421Z,101830.72
2022-07-27T08:30:08.706Z,101830.91
2022-07-27T08:32:49.890Z,101824.13
2022-07-27T08:35:18.117Z,101828.59
2022-07-27T08:37:44.774Z,101832.28
2022-07-27T08:43:00.766Z,101838.81
2022-07-27T08:45:27.596Z,101826.66
2022-07-27T08:47:54.287Z,101833.72
2022-07-27T08:50:24.923Z,101835.78
2022-07-27T08:53:03.204Z,101841.03
2022-07-27T08:55:36.119Z,101836.16
2022-07-27T08:58:03.894Z,101840.09
2022-07-27T09:00:31.462Z,101839.00
2022-07-27T09:02:58.597Z,101839.94
2022-07-27T09:05:25.896Z,101840.84
2022-07-27T09:08:14.966Z,101836.91
2022-07-27T09:10:41.792Z,101838.91
2022-07-27T09:13:31.579Z,101848.69
2022-07-27T09:16:18.804Z,101852.53
2022-07-27T09:18:48.078Z,101853.56
2022-07-27T09:21:19.591Z,101858.41
2022-07-27T09:23:48.357Z,101853.13
2022-07-27T09:26:30.477Z,101852.75
2022-07-27T09:29:11.590Z,101840.78
2022-07-27T09:31:49.946Z,101848.69
2022-07-27T09:34:34.328Z,101834.84
2022-07-27T09:37:05.923Z,101839.75
2022-07-27T09:39:32.857Z,101839.84
2022-07-27T09:42:02.374Z,101833.91
2022-07-27T09:44:44.780Z,101837.16
2022-07-27T09:47:28.838Z,101825.13
2022-07-27T09:49:58.055Z,101830.34
2022-07-27T09:52:27.826Z,101831.63
2022-07-27T09:54:54.629Z,101834.59
2022-07-27T09:57:21.125Z,101834.31
2022-07-27T09:59:47.705Z,101837.66
2022-07-27T10:02:14.595Z,101835.47
2022-07-27T10:04:41.570Z,101825.50
2022-07-27T10:07:12.690Z,101830.69
2022-07-27T10:09:39.860Z,101836.59
2022-07-27T10:12:06.603Z,101835.31
2022-07-27T10:14:33.380Z,101839.69
2022-07-27T10:16:59.919Z,101839.38
2022-07-27T10:19:32.754Z,101841.38
2022-07-27T10:22:00.081Z,101840.06
2022-07-27T10:24:36.909Z,101840.13
2022-07-27T10:27:22.194Z,101835.31
2022-07-27T10:29:50.492Z,101838.47
2022-07-27T10:32:28.059Z,101831.50
2022-07-27T10:34:55.563Z,101836.28
2022-07-27T10:37:34.387Z,101838.38
2022-07-27T10:40:24.945Z,101838.97
2022-07-27T10:42:54.596Z,101842.91
2022-07-27T10:45:22.317Z,101841.13
2022-07-27T10:47:51.151Z,101839.84
2022-07-27T10:50:17.529Z,101838.66
2022-07-27T10:52:57.791Z,101837.81
2022-07-27T10:55:33.965Z,101837.28
2022-07-27T10:58:03.410Z,101843.94
2022-07-27T11:00:55.966Z,101843.13
2022-07-27T11:03:26.160Z,101836.88
2022-07-27T11:06:31.996Z,101835.09
2022-07-27T11:09:46.480Z,101846.44
2022-07-27T11:11:48.719Z,101839.94
2022-07-27T11:14:15.647Z,101841.97
2022-07-27T11:16:55.569Z,101848.84
2022-07-27T11:19:24.101Z,101847.75
2022-07-27T11:21:52.424Z,101845.81
2022-07-27T11:24:19.228Z,101832.44
2022-07-27T11:26:51.146Z,101832.06
2022-07-27T11:29:19.077Z,101846.34
2022-07-27T11:31:57.051Z,101849.41
2022-07-27T11:34:29.072Z,101841.75
2022-07-27T11:36:56.849Z,101849.47
2022-07-27T11:39:58.606Z,101841.00
2022-07-27T11:42:17.668Z,101847.28
2022-07-27T11:44:47.257Z,101842.84
2022-07-27T11:47:18.575Z,101846.00
2022-07-27T11:49:45.044Z,101839.94
2022-07-27T11:52:12.029Z,101851.44
2022-07-27T11:54:40.346Z,101850.31
2022-07-27T11:57:12.589Z,101853.66
2022-07-27T11:59:40.565Z,101853.28
2022-07-27T12:02:19.757Z,101867.44
2022-07-27T12:04:48.375Z,101857.69
2022-07-27T12:07:16.639Z,101870.06
2022-07-27T12:09:49.906Z,101856.72
2022-07-27T12:12:18.642Z,101855.06
2022-07-27T12:14:57.901Z,101850.53
2022-07-27T12:17:38.261Z,101853.16
2022-07-27T12:20:09.276Z,101851.53
2022-07-27T12:22:50.265Z,101849.38
2022-07-27T12:25:17.277Z,101852.00
2022-07-27T12:28:05.373Z,101846.31
2022-07-27T12:30:46.412Z,101854.50
2022-07-27T12:33:35.768Z,101851.63
2022-07-27T12:36:03.897Z,101854.06
2022-07-27T12:38:45.528Z,101845.16
2022-07-27T12:41:23.601Z,101840.16
2022-07-27T12:44:10.657Z,101844.84
2022-07-27T12:46:59.358Z,101848.31
2022-07-27T12:49:26.624Z,101844.91
2022-07-27T12:51:53.272Z,101843.47
2022-07-27T12:54:19.867Z,101845.78
2022-07-27T12:56:48.603Z,101836.38
2022-07-27T12:59:15.311Z,101839.72
2022-07-27T13:01:42.171Z,101846.41
2022-07-27T13:04:08.911Z,101831.19
2022-07-27T13:06:35.529Z,101840.69
2022-07-27T13:09:02.098Z,101840.44
2022-07-27T13:11:28.540Z,101839.88
2022-07-27T13:13:55.040Z,101837.63
2022-07-27T13:16:21.648Z,101822.53
2022-07-27T13:18:48.130Z,101823.03
2022-07-27T13:21:14.556Z,101833.53
2022-07-27T13:23:41.012Z,101828.81
2022-07-27T13:26:07.421Z,101836.13
2022-07-27T13:28:33.913Z,101830.66
2022-07-27T13:31:00.409Z,101823.97
2022-07-27T13:33:26.878Z,101834.34
2022-07-27T13:36:00.569Z,101827.66
2022-07-27T13:38:28.852Z,101817.38
2022-07-27T13:40:55.478Z,101824.22
2022-07-27T13:43:21.997Z,101829.34
2022-07-27T13:45:48.541Z,101825.38
2022-07-27T13:48:16.117Z,101818.03
2022-07-27T13:50:42.571Z,101816.59
2022-07-27T13:53:09.156Z,101816.59
2022-07-27T13:55:35.622Z,101820.66
2022-07-27T13:58:02.068Z,101810.94
2022-07-27T14:00:28.548Z,101816.03
2022-07-27T14:02:55.069Z,101822.91
2022-07-27T14:05:21.655Z,101828.03
2022-07-27T14:07:48.077Z,101823.66
2022-07-27T14:10:32.730Z,101826.16
2022-07-27T14:13:07.741Z,101823.97
2022-07-27T14:15:53.784Z,101844.72
2022-07-27T14:18:26.517Z,101836.19
2022-07-27T14:20:54.122Z,101852.38
2022-07-27T14:23:21.053Z,101846.66
2022-07-27T14:25:47.530Z,101841.22
2022-07-27T14:28:13.997Z,101832.03
2022-07-27T14:30:40.453Z,101829.59
2022-07-27T14:33:06.959Z,101843.28
2022-07-27T14:35:38.277Z,101858.56
2022-07-27T14:38:06.951Z,101845.81
2022-07-27T14:40:33.393Z,101843.94
2022-07-27T14:42:59.814Z,101848.88
2022-07-27T14:45:45.039Z,101843.81
2022-07-27T14:48:25.108Z,101830.03
2022-07-27T14:50:55.052Z,101847.75
2022-07-27T14:53:21.627Z,101834.31
2022-07-27T14:55:48.262Z,101843.97
2022-07-27T14:58:14.705Z,101834.41
2022-07-27T15:00:41.329Z,101823.44
2022-07-27T15:03:07.811Z,101823.97
2022-07-27T15:05:49.490Z,101824.34
2022-07-27T15:08:17.179Z,101830.69
2022-07-27T15:10:44.180Z,101829.22
2022-07-27T15:13:10.624Z,101828.56
2022-07-27T15:15:37.065Z,101825.81
2022-07-27T15:18:04.367Z,101826.19
2022-07-27T15:20:30.809Z,101824.00
2022-07-27T15:22:57.314Z,101824.41
2022-07-27T15:25:23.798Z,101838.50
2022-07-27T15:27:50.316Z,101829.41
2022-07-27T15:30:16.792Z,101829.25
2022-07-27T15:32:43.246Z,101835.00
2022-07-27T15:35:11.083Z,101830.59
2022-07-27T15:37:37.887Z,101827.38
2022-07-27T15:40:24.864Z,101827.69
2022-07-27T15:42:51.357Z,101842.91
2022-07-27T15:45:17.817Z,101833.00
2022-07-27T15:47:44.323Z,101829.78
2022-07-27T15:50:10.992Z,101844.28
2022-07-27T15:52:37.503Z,101836.47
2022-07-27T15:55:04.430Z,101835.41
2022-07-27T15:57:30.993Z,101830.56
2022-07-27T15:59:57.670Z,101838.03
2022-07-27T16:02:26.482Z,101834.06
2022-07-27T16:04:53.864Z,101838.78
2022-07-27T16:07:20.629Z,101831.81
2022-07-27T16:09:47.043Z,101829.75
2022-07-27T16:12:16.797Z,101827.34
2022-07-27T16:14:44.193Z,101848.88
2022-07-27T16:17:10.815Z,101835.53
2022-07-27T16:19:37.377Z,101835.44
2022-07-27T16:22:04.155Z,101853.75
2022-07-27T16:24:33.975Z,101840.59
2022-07-27T16:27:04.700Z,101843.81
2022-07-27T16:29:31.670Z,101844.88
2022-07-27T16:31:58.898Z,101846.34
2022-07-27T16:34:31.334Z,101848.50
2022-07-27T16:36:58.770Z,101839.50
2022-07-27T16:39:25.977Z,101835.53
2022-07-27T16:41:52.694Z,101850.75
2022-07-27T16:44:20.942Z,101851.16
2022-07-27T16:46:48.566Z,101857.41
2022-07-27T16:49:15.781Z,101843.84
2022-07-27T16:51:42.492Z,101841.91
2022-07-27T16:54:09.049Z,101837.66
2022-07-27T16:56:35.599Z,101839.22
2022-07-27T16:59:02.075Z,101842.50
2022-07-27T17:01:29.079Z,101839.25
2022-07-27T17:03:56.927Z,101839.31
2022-07-27T17:06:25.871Z,101832.97
2022-07-27T17:08:52.661Z,101836.09
2022-07-27T17:11:20.869Z,101834.28
2022-07-27T17:13:49.228Z,101831.25
2022-07-27T17:16:16.047Z,101838.41
2022-07-27T17:18:42.684Z,101849.81
2022-07-27T17:21:12.464Z,101849.28
2022-07-27T17:23:40.701Z,101841.66
2022-07-27T17:26:08.431Z,101848.13
2022-07-27T17:28:38.799Z,101836.13
2022-07-27T17:31:06.192Z,101845.44
2022-07-27T17:33:33.008Z,101840.38
2022-07-27T17:36:00.076Z,101842.59
2022-07-27T17:38:27.368Z,101837.41
2022-07-27T17:40:54.138Z,101840.03
2022-07-27T17:43:20.790Z,101837.94
2022-07-27T17:45:47.233Z,101839.63
2022-07-27T17:48:13.724Z,101835.56
2022-07-27T17:50:40.159Z,101832.25
2022-07-27T17:53:06.662Z,101846.25
2022-07-27T17:55:34.597Z,101835.56
2022-07-27T17:58:01.041Z,101844.44
2022-07-27T18:00:29.039Z,101836.31
2022-07-27T18:02:56.220Z,101837.53
2022-07-27T18:05:22.643Z,101834.94
2022-07-27T18:07:51.836Z,101843.84
2022-07-27T18:10:18.281Z,101843.97
2022-07-27T18:12:44.710Z,101838.56
2022-07-27T18:15:29.918Z,101838.00
2022-07-27T18:17:56.385Z,101842.47
2022-07-27T18:20:22.915Z,101837.38
2022-07-27T18:22:49.520Z,101845.22
2022-07-27T18:25:15.981Z,101848.66
2022-07-27T18:27:42.964Z,101850.94
2022-07-27T18:30:09.930Z,101848.75
2022-07-27T18:32:37.001Z,101859.91
2022-07-27T18:35:05.368Z,101854.34
2022-07-27T18:37:31.851Z,101862.00
2022-07-27T18:39:58.269Z,101870.94
2022-07-27T18:42:24.743Z,101877.34
2022-07-27T18:44:51.296Z,101878.44
2022-07-27T18:47:17.886Z,101874.81
2022-07-27T18:49:44.335Z,101889.06
2022-07-27T18:52:11.077Z,101874.09
2022-07-27T18:54:37.636Z,101871.38
2022-07-27T18:57:04.309Z,101880.19
2022-07-27T18:59:30.713Z,101883.88
2022-07-27T19:01:57.693Z,101883.69
2022-07-27T19:04:24.692Z,101887.59
2022-07-27T19:06:51.444Z,101887.97
2022-07-27T19:09:17.855Z,101890.25
2022-07-27T19:11:44.284Z,101897.41
2022-07-27T19:14:10.772Z,101891.38
2022-07-27T19:16:37.670Z,101896.44
2022-07-27T19:19:05.875Z,101893.63
2022-07-27T19:21:34.165Z,101898.06
2022-07-27T19:24:00.685Z,101900.19
2022-07-27T19:26:27.233Z,101907.63
2022-07-27T19:28:53.840Z,101917.25
2022-07-27T19:31:22.382Z,101914.34
2022-07-27T19:33:50.968Z,101916.81
2022-07-27T19:36:17.653Z,101920.47
2022-07-27T19:38:44.336Z,101914.66
2022-07-27T19:41:10.867Z,101915.69
2022-07-27T19:43:37.335Z,101924.06
2022-07-27T19:46:04.165Z,101923.09
2022-07-27T19:48:30.824Z,101931.91
2022-07-27T19:51:00.973Z,101927.66
2022-07-27T19:53:31.284Z,101926.59
2022-07-27T19:55:59.502Z,101933.91
2022-07-27T19:58:25.982Z,101937.03
2022-07-27T20:00:52.700Z,101934.78
2022-07-27T20:03:20.461Z,101936.19
2022-07-27T20:05:47.764Z,101933.28
2022-07-27T20:08:14.968Z,101939.75
2022-07-27T20:10:42.549Z,101936.22
2022-07-27T20:13:10.055Z,101940.22
2022-07-27T20:15:36.819Z,101938.03
2022-07-27T20:18:03.426Z,101943.44
2022-07-27T20:20:30.260Z,101936.78
2022-07-27T20:22:56.833Z,101936.34
2022-07-27T20:25:23.320Z,101942.81
2022-07-27T20:27:50.017Z,101940.97
2022-07-27T20:30:18.063Z,101937.38
2022-07-27T20:32:45.479Z,101947.34
2022-07-27T20:35:12.019Z,101940.66
2022-07-27T20:37:38.828Z,101939.59
2022-07-27T20:40:07.398Z,101938.47
2022-07-27T20:42:33.853Z,101939.25
2022-07-27T20:45:00.590Z,101946.78
2022-07-27T20:47:32.614Z,101945.41
2022-07-27T20:50:00.918Z,101935.59
2022-07-27T20:52:27.469Z,101942.19
2022-07-27T20:54:54.015Z,101937.94
2022-07-27T20:57:20.519Z,101939.13
2022-07-27T20:59:47.029Z,101935.59
2022-07-27T21:02:13.868Z,101928.81
2022-07-27T21:04:40.409Z,101929.34
2022-07-27T21:07:06.847Z,101932.03
2022-07-27T21:09:33.299Z,101925.13
2022-07-27T21:11:59.861Z,101920.94
2022-07-27T21:14:26.292Z,101924.16
2022-07-27T21:16:52.839Z,101922.63
2022-07-27T21:19:20.868Z,101921.69
2022-07-27T21:21:47.315Z,101916.31
2022-07-27T21:24:17.787Z,101923.28
2022-07-27T21:26:48.584Z,101921.25
2022-07-27T21:29:15.362Z,101923.50
2022-07-27T21:31:41.868Z,101929.13
2022-07-27T21:34:09.624Z,101925.78
2022-07-27T21:36:36.074Z,101924.56
2022-07-27T21:39:02.545Z,101931.25
2022-07-27T21:41:29.042Z,101938.56
2022-07-27T21:43:55.613Z,101933.94
2022-07-27T21:46:22.097Z,101934.91
2022-07-27T21:48:48.873Z,101931.66
2022-07-27T21:51:18.265Z,101935.28
2022-07-27T21:53:45.851Z,101926.66
2022-07-27T21:56:13.640Z,101939.88
2022-07-27T21:58:40.313Z,101937.19
2022-07-27T22:01:09.112Z,101933.06
2022-07-27T22:03:36.815Z,101932.91
2022-07-27T22:06:04.980Z,101927.72
2022-07-27T22:08:31.790Z,101929.41
2022-07-27T22:10:58.326Z,101936.31
2022-07-27T22:13:25.366Z,101927.47
2022-07-27T22:15:51.970Z,101934.94
2022-07-27T22:18:18.388Z,101930.56
2022-07-27T22:20:44.864Z,101929.63
2022-07-27T22:23:11.547Z,101937.78
2022-07-27T22:25:38.363Z,101933.25
2022-07-27T22:28:05.009Z,101942.34
2022-07-27T22:30:31.496Z,101937.59
2022-07-27T22:32:57.945Z,101944.94
2022-07-27T22:35:25.348Z,101947.28
2022-07-27T22:37:51.766Z,101944.16
2022-07-27T22:40:18.997Z,101944.09
2022-07-27T22:42:45.446Z,101947.66
2022-07-27T22:45:11.897Z,101937.56
2022-07-27T22:47:38.354Z,101944.41
2022-07-27T22:50:05.765Z,101940.56
2022-07-27T22:52:32.233Z,101945.31
2022-07-27T22:54:58.700Z,101949.16
2022-07-27T22:57:25.780Z,101946.16
2022-07-27T22:59:52.758Z,101944.66
2022-07-27T23:02:19.343Z,101954.88
2022-07-27T23:04:45.998Z,101948.50
2022-07-27T23:07:12.724Z,101955.06
2022-07-27T23:09:39.843Z,101948.59
2022-07-27T23:12:06.601Z,101947.38
2022-07-27T23:14:33.724Z,101950.81
2022-07-27T23:17:00.186Z,101947.22
2022-07-27T23:19:26.641Z,101943.72
2022-07-27T23:21:57.455Z,101940.53
2022-07-27T23:24:29.054Z,101951.00
2022-07-27T23:26:55.942Z,101948.09
2022-07-27T23:29:22.389Z,101953.81
2022-07-27T23:31:48.884Z,101940.19
2022-07-27T23:34:15.685Z,101947.59
2022-07-27T23:36:43.712Z,101941.84
2022-07-27T23:39:10.198Z,101946.56
2022-07-27T23:41:36.630Z,101945.19
2022-07-27T23:44:04.057Z,101946.94
2022-07-27T23:46:30.603Z,101944.75
2022-07-27T23:48:57.145Z,101942.50
2022-07-27T23:51:23.684Z,101935.38
2022-07-27T23:53:50.117Z,101941.25
2022-07-27T23:56:16.712Z,101940.44
2022-07-27T23:58:43.769Z,101937.09
